CMB861 Details

Departure: RAFO Thumrait (OOTH)
Arrival: Diego Garcia (FJDG)
Route: KIVEL UM551 ANGAL MOXET L516 NKW
Notes: USTRANSCOM CONTRACT FLIGHT


Current Weather Information
No METAR available for OOTH.
FJDG 221255Z 18003KT 9999 FEW020 FEW250 31/27 A2983 RMK SLP098 T03120265